• Join FlightAware (Why Join?)
  • Login
  • US Flag 
05:20AM EDT


 

Airport Tracker/Info


-or-


 

Live Flight TrackerFlight Track Log ✈ LOT457 ✈ 12-May-2012 ✈ EPWA / WAW - ESSA / ARN

Flight Track Log - Related Links

Times and Time Zones

All times are in EDT time to prevent confusion due to time zone crossing. See the LOT457 flight status page for this flight to view local times or setup timezone preferences in your user account.

Time Position Orientation Groundspeed Altitude Reporting Facility
EDT Latitude Longitude Course Direction KTS MPH feet Rate Location/Type
10:31AM 52.6142 20.8154 348° North  Level Estimated
10:32AM 52.7131 20.7815 348° North  Level Estimated
10:33AM 52.8120 20.7475 348° North  Level Estimated
10:34AM 52.9109 20.7133 348° North  Level Estimated
10:35AM 53.0098 20.6790 348° North  Level Estimated
10:36AM 53.1086 20.6444 348° North  Level Estimated
10:37AM 53.2075 20.6098 348° North  Level Estimated
10:38AM 53.3063 20.5749 348° North  Level Estimated
10:39AM 53.4051 20.5400 348° North  Level Estimated
10:40AM 53.5040 20.5048 348° North  Level Estimated
10:41AM 53.6028 20.4695 348° North  Level Estimated
10:42AM 53.7016 20.4340 348° North  Level Estimated
10:43AM 53.8004 20.3984 348° North  Level Estimated
10:44AM 53.8991 20.3626 348° North  Level Estimated
10:45AM 53.9979 20.3266 348° North  Level Estimated
10:46AM 54.0967 20.2904 348° North  Level Estimated
10:47AM 54.1954 20.2541 348° North  Level Estimated
10:48AM 54.2942 20.2176 348° North  Level Estimated
10:49AM 54.3929 20.1809 348° North  Level Estimated
10:50AM 54.4916 20.1441 348° North  Level Estimated
10:51AM 54.5903 20.1070 348° North  Level Estimated
10:52AM 54.6890 20.0698 348° North  Level Estimated
10:53AM 54.7877 20.0324 348° North  Level Estimated
10:54AM 54.8863 19.9949 348° North  Level Estimated
10:55AM 54.9850 19.9571 348° North  Level Estimated
10:56AM 55.0836 19.9191 348° North  Level Estimated
10:57AM 55.1823 19.8810 348° North  Level Estimated
10:58AM 55.2809 19.8427 347° North  Level Estimated
10:59AM 55.3795 19.8042 347° North  Level Estimated
11:00AM 55.4781 19.7654 347° North  Level Estimated
11:01AM 55.5767 19.7265 347° North  Level Estimated
11:02AM 55.6752 19.6875 347° North  Level Estimated
11:03AM 55.7738 19.6481 347° North  Level Estimated
11:04AM 55.8723 19.6087 347° North  Level Estimated
11:05AM 55.9709 19.5690 347° North  Level Estimated
11:06AM 56.0694 19.5291 347° North  Level Estimated
11:07AM 56.1679 19.4890 347° North  Level Estimated
11:08AM 56.2664 19.4486 347° North  Level Estimated
11:09AM 56.3649 19.4081 347° North  Level Estimated
11:10AM 56.4634 19.3674 347° North  Level Estimated
11:11AM 56.5618 19.3265 347° North  Level Estimated
11:12AM 56.6603 19.2853 347° North  Level Estimated
11:13AM 56.7587 19.2439 347° North  Level Estimated
11:14AM 56.8571 19.2024 347° North  Level Estimated
11:15AM 56.9555 19.1605 347° North  Level Estimated
11:16AM 57.0539 19.1185 347° North  Level Estimated
11:17AM 57.1523 19.0763 347° North  Level Estimated
11:18AM 57.2506 19.0338 347° North  Level Estimated
11:19AM 57.3490 18.9911 347° North  Level Estimated
11:20AM 57.4473 18.9482 347° North  Level Estimated
11:21AM 57.5456 18.9050 347° North  Level Estimated
11:22AM 57.6439 18.8616 347° North  Level Estimated
11:23AM 57.7422 18.8180 347° North  Level Estimated
11:24AM 57.8405 18.7741 347° North  Level Estimated
11:25AM 57.9387 18.7300 347° North  Level Estimated
11:26AM 58.0370 18.6856 347° North  Level Estimated
11:27AM 58.1352 18.6411 346° North  Level Estimated
11:28AM 58.2334 18.5962 346° North  Level Estimated
11:29AM 58.3316 18.5511 346° North  Level Estimated
11:30AM 58.4298 18.5058 346° North  Level Estimated
11:31AM 58.5279 18.4602 346° North  Level Estimated
11:32AM 58.6261 18.4143 346° North  Level Estimated
11:33AM 58.7242 18.3682 346° North  Level Estimated
11:34AM 58.8223 18.3218 346° North  Level Estimated
11:35AM 58.9204 18.2752 346° North  Level Estimated
11:36AM 59.0185 18.2283 346° North  Level Estimated
11:37AM 59.1165 18.1812 346° North  Level Estimated
11:38AM 59.2146 18.1337 346° North  Level Estimated
11:39AM 59.3126 18.0860 346° North  Level Estimated
11:40AM 59.4106 18.0380 346° North  Level Estimated
11:41AM 59.5086 17.9897 346° North  Level Estimated
11:42AM 59.6066 17.9412 346° North  Level Estimated
11:43AM 59.7045 17.8924 166° South  Level Estimated
11:44AM 59.6066 17.9412 346° North  Level Estimated
11:45AM 59.7045 17.8924 166° South  Level Estimated
11:46AM 59.6066 17.9412 346° North  Level Estimated
11:47AM 59.7045 17.8924 166° South  Level Estimated
11:48AM 59.6066 17.9412 346° North  Level Estimated
11:49AM 59.7045 17.8924 166° South  Level Estimated
11:50AM 59.6066 17.9412 346° North  Level Estimated
11:51AM 59.7045 17.8924 346° North  Level Estimated